createdAt,value
2018-08-16T00:00:18.662Z,22.68
2018-08-16T00:01:18.660Z,22.65
2018-08-16T00:02:18.659Z,22.72
2018-08-16T00:03:18.649Z,22.72
2018-08-16T00:04:18.672Z,22.77
2018-08-16T00:05:18.993Z,22.78
2018-08-16T00:06:18.626Z,22.78
2018-08-16T00:07:18.975Z,22.86
2018-08-16T00:08:18.659Z,22.78
2018-08-16T00:09:18.938Z,22.82
2018-08-16T00:10:18.617Z,22.82
2018-08-16T00:11:18.923Z,22.84
2018-08-16T00:12:18.909Z,22.77
2018-08-16T00:13:18.597Z,22.71
2018-08-16T00:14:18.574Z,22.77
2018-08-16T00:15:18.585Z,22.69
2018-08-16T00:16:18.908Z,22.82
2018-08-16T00:17:18.905Z,22.75
2018-08-16T00:18:18.552Z,22.71
2018-08-16T00:19:18.546Z,22.80
2018-08-16T00:20:18.890Z,22.80
2018-08-16T00:21:18.851Z,22.86
2018-08-16T00:22:18.851Z,22.75
2018-08-16T00:23:18.846Z,22.78
2018-08-16T00:24:18.498Z,22.83
2018-08-16T00:25:18.857Z,22.83
2018-08-16T00:26:18.841Z,22.80
2018-08-16T00:27:18.489Z,22.86
2018-08-16T00:28:18.480Z,22.83
2018-08-16T00:29:18.825Z,22.82
2018-08-16T00:30:18.815Z,22.83
2018-08-16T00:31:18.811Z,22.87
2018-08-16T00:32:18.805Z,22.90
2018-08-16T00:33:18.465Z,22.83
2018-08-16T00:34:18.437Z,22.84
2018-08-16T00:35:18.765Z,22.82
2018-08-16T00:36:18.473Z,22.86
2018-08-16T00:37:18.761Z,22.83
2018-08-16T00:38:18.420Z,22.83
2018-08-16T00:39:18.399Z,22.78
2018-08-16T00:40:18.732Z,22.78
2018-08-16T00:41:18.414Z,22.83
2018-08-16T00:42:18.720Z,22.80
2018-08-16T00:43:18.394Z,22.82
2018-08-16T00:44:18.706Z,22.77
2018-08-16T00:45:18.701Z,22.78
2018-08-16T00:46:18.375Z,22.84
2018-08-16T00:47:18.357Z,22.83
2018-08-16T00:48:18.354Z,22.84
2018-08-16T00:49:18.686Z,22.90
2018-08-16T00:50:18.667Z,22.92
2018-08-16T00:51:18.653Z,22.82
2018-08-16T00:52:18.326Z,22.87
2018-08-16T00:53:18.315Z,22.89
2018-08-16T00:54:18.658Z,22.90
2018-08-16T00:55:18.306Z,22.80
2018-08-16T00:56:18.305Z,22.89
2018-08-16T00:57:18.640Z,22.83
2018-08-16T00:58:18.299Z,22.82
2018-08-16T00:59:18.276Z,22.83
2018-08-16T01:00:18.294Z,22.82
2018-08-16T01:01:18.273Z,22.78
2018-08-16T01:02:18.597Z,22.74
2018-08-16T01:03:18.262Z,22.82
2018-08-16T01:04:18.586Z,22.83
2018-08-16T01:05:18.246Z,22.87
2018-08-16T01:06:18.559Z,22.87
2018-08-16T01:07:18.226Z,22.77
2018-08-16T01:08:18.548Z,22.90
2018-08-16T01:09:18.560Z,22.90
2018-08-16T01:10:18.554Z,22.87
2018-08-16T01:11:18.548Z,22.93
2018-08-16T01:12:18.194Z,22.92
2018-08-16T01:13:18.507Z,22.89
2018-08-16T01:14:18.527Z,22.96
2018-08-16T01:15:18.522Z,22.96
2018-08-16T01:16:18.514Z,22.94
2018-08-16T01:17:18.204Z,22.93
2018-08-16T01:18:18.168Z,22.97
2018-08-16T01:19:18.478Z,22.94
2018-08-16T01:20:18.158Z,23.01
2018-08-16T01:21:18.123Z,22.97
2018-08-16T01:22:18.132Z,22.96
2018-08-16T01:23:18.462Z,22.97
2018-08-16T01:24:18.437Z,22.94
2018-08-16T01:25:18.437Z,23.01
2018-08-16T01:26:18.432Z,23.04
2018-08-16T01:27:18.444Z,23.07
2018-08-16T01:28:18.436Z,23.05
2018-08-16T01:29:18.411Z,23.09
2018-08-16T01:30:18.065Z,23.12
2018-08-16T01:31:18.077Z,23.09
2018-08-16T01:32:18.057Z,23.08
2018-08-16T01:33:18.040Z,23.15
2018-08-16T01:34:18.377Z,23.07
2018-08-16T01:35:18.038Z,23.08
2018-08-16T01:36:18.022Z,23.08
2018-08-16T01:37:18.376Z,23.08
2018-08-16T01:38:18.023Z,23.17
2018-08-16T01:39:18.017Z,23.22
2018-08-16T01:40:18.357Z,23.17
2018-08-16T01:41:18.036Z,23.17
2018-08-16T01:42:18.345Z,23.19
2018-08-16T01:43:18.337Z,23.17
2018-08-16T01:44:18.312Z,23.15
2018-08-16T01:45:18.317Z,23.17
2018-08-16T01:46:17.984Z,23.20
2018-08-16T01:47:17.957Z,23.26
2018-08-16T01:48:17.955Z,23.26
2018-08-16T01:49:17.982Z,23.26
2018-08-16T01:50:17.956Z,23.34
2018-08-16T01:51:17.938Z,23.31
2018-08-16T01:52:18.256Z,23.26
2018-08-16T01:53:18.256Z,23.31
2018-08-16T01:54:18.248Z,23.31
2018-08-16T01:55:18.244Z,23.26
2018-08-16T01:56:18.235Z,23.34
2018-08-16T01:57:18.247Z,23.31
2018-08-16T01:58:18.223Z,23.31
2018-08-16T01:59:18.233Z,23.29
2018-08-16T02:00:17.890Z,23.32
2018-08-16T02:01:18.203Z,23.26
2018-08-16T02:02:18.195Z,23.26
2018-08-16T02:03:18.194Z,23.17
2018-08-16T02:04:17.850Z,23.20
2018-08-16T02:05:17.875Z,23.19
2018-08-16T02:06:18.172Z,23.24
2018-08-16T02:07:17.842Z,23.23
2018-08-16T02:08:17.843Z,23.19
2018-08-16T02:09:17.820Z,23.19
2018-08-16T02:10:18.162Z,23.14
2018-08-16T02:11:17.809Z,23.20
2018-08-16T02:12:18.135Z,23.19
2018-08-16T02:13:17.797Z,23.17
2018-08-16T02:14:18.118Z,23.15
2018-08-16T02:15:17.770Z,23.15
2018-08-16T02:16:18.105Z,23.19
2018-08-16T02:17:18.106Z,23.22
2018-08-16T02:18:18.113Z,23.20
2018-08-16T02:19:18.088Z,23.20
2018-08-16T02:20:17.755Z,23.11
2018-08-16T02:21:17.757Z,23.15
2018-08-16T02:22:17.730Z,23.05
2018-08-16T02:23:17.747Z,23.04
2018-08-16T02:24:18.075Z,23.05
2018-08-16T02:25:18.059Z,23.12
2018-08-16T02:26:17.723Z,23.14
2018-08-16T02:27:18.055Z,23.12
2018-08-16T02:28:18.057Z,23.15
2018-08-16T02:29:18.027Z,23.07
2018-08-16T02:30:18.032Z,23.04
2018-08-16T02:31:17.674Z,23.07
2018-08-16T02:32:18.032Z,23.08
2018-08-16T02:33:18.017Z,23.19
2018-08-16T02:34:18.008Z,23.19
2018-08-16T02:35:18.003Z,23.12
2018-08-16T02:36:17.983Z,23.22
2018-08-16T02:37:17.990Z,23.24
2018-08-16T02:38:17.641Z,23.19
2018-08-16T02:39:17.630Z,23.15
2018-08-16T02:40:17.972Z,23.20
2018-08-16T02:41:17.945Z,23.08
2018-08-16T02:42:17.621Z,23.14
2018-08-16T02:43:17.594Z,23.17
2018-08-16T02:44:17.931Z,23.05
2018-08-16T02:45:17.588Z,23.08
2018-08-16T02:46:17.589Z,23.05
2018-08-16T02:47:17.578Z,23.08
2018-08-16T02:48:17.589Z,23.12
2018-08-16T02:49:17.898Z,23.20
2018-08-16T02:50:17.907Z,23.12
2018-08-16T02:51:17.564Z,23.20
2018-08-16T02:52:17.550Z,23.04
2018-08-16T02:53:17.887Z,23.07
2018-08-16T02:54:17.865Z,23.04
2018-08-16T02:55:17.858Z,23.05
2018-08-16T02:56:17.520Z,23.05
2018-08-16T02:57:17.845Z,23.08
2018-08-16T02:58:17.843Z,23.14
2018-08-16T02:59:17.514Z,23.15
2018-08-16T03:00:17.830Z,22.97
2018-08-16T03:01:17.493Z,23.09
2018-08-16T03:02:17.483Z,23.09
2018-08-16T03:03:17.506Z,23.09
2018-08-16T03:04:17.474Z,23.12
2018-08-16T03:05:17.802Z,23.11
2018-08-16T03:06:17.786Z,22.99
2018-08-16T03:07:17.795Z,23.01
2018-08-16T03:08:17.792Z,22.96
2018-08-16T14:20:44.642Z,21.82
2018-08-16T14:21:44.195Z,21.78
2018-08-16T14:23:37.882Z,21.78
2018-08-16T14:24:37.522Z,21.76
2018-08-16T14:25:37.831Z,21.76
2018-08-16T14:26:37.507Z,21.81
2018-08-16T14:27:37.484Z,21.85
2018-08-16T14:28:37.483Z,21.81
2018-08-16T14:29:37.814Z,21.74
2018-08-16T14:30:37.805Z,21.81
2018-08-16T14:31:37.452Z,21.85
2018-08-16T14:32:37.439Z,21.90
2018-08-16T14:33:37.433Z,21.81
2018-08-16T14:34:37.750Z,21.79
2018-08-16T14:35:37.759Z,21.78
2018-08-16T14:36:37.753Z,21.83
2018-08-16T14:37:37.727Z,21.88
2018-08-16T14:38:37.752Z,21.82
2018-08-16T14:39:37.370Z,21.88
2018-08-16T14:40:37.699Z,21.82
2018-08-16T14:41:37.358Z,21.85
2018-08-16T14:42:37.690Z,21.81
2018-08-16T14:43:37.674Z,21.88
2018-08-16T14:44:37.685Z,21.85
2018-08-16T14:45:37.654Z,21.94
2018-08-16T14:46:37.657Z,21.82
2018-08-16T14:47:37.642Z,21.88
2018-08-16T14:48:37.309Z,21.94
2018-08-16T14:49:37.301Z,21.85
2018-08-16T14:50:37.636Z,21.91
2018-08-16T14:51:37.638Z,21.91
2018-08-16T14:52:37.278Z,21.92
2018-08-16T14:53:37.613Z,21.95
2018-08-16T14:54:37.272Z,21.99
2018-08-16T14:55:37.262Z,21.99
2018-08-16T14:56:37.591Z,21.98
2018-08-16T14:57:37.250Z,21.94
2018-08-16T14:58:37.584Z,21.99
2018-08-16T14:59:37.229Z,21.95
2018-08-16T15:00:37.557Z,22.02
2018-08-16T15:01:37.211Z,21.97
2018-08-16T15:02:37.551Z,21.98
2018-08-16T15:03:37.532Z,22.02
2018-08-16T15:04:37.516Z,22.01
2018-08-16T15:05:37.515Z,21.95
2018-08-16T15:06:37.521Z,21.98
2018-08-16T15:07:37.170Z,22.07
2018-08-16T15:08:37.503Z,22.02
2018-08-16T15:09:37.498Z,21.97
2018-08-16T15:10:37.175Z,21.97
2018-08-16T15:11:37.465Z,21.99
2018-08-16T15:12:37.466Z,22.01
2018-08-16T15:13:37.107Z,21.97
2018-08-16T15:14:37.467Z,22.04
2018-08-16T15:15:37.438Z,22.02
2018-08-16T15:16:37.433Z,22.02
2018-08-16T15:17:37.094Z,22.06
2018-08-16T15:18:37.426Z,22.07
2018-08-16T15:19:37.075Z,21.99
2018-08-16T15:20:37.092Z,21.99
2018-08-16T15:21:37.059Z,22.02
2018-08-16T15:22:37.388Z,22.02
2018-08-16T15:23:37.042Z,22.02
2018-08-16T15:24:37.056Z,22.07
2018-08-16T15:25:37.028Z,22.04
2018-08-16T15:26:37.384Z,22.01
2018-08-16T15:27:37.030Z,22.06
2018-08-16T15:28:37.364Z,22.07
2018-08-16T15:29:37.011Z,22.09
2018-08-16T15:30:36.994Z,22.04
2018-08-16T15:31:36.997Z,22.02
2018-08-16T15:32:37.337Z,22.02
2018-08-16T15:33:37.314Z,22.04
2018-08-16T15:34:36.974Z,22.04
2018-08-16T15:35:36.989Z,22.06
2018-08-16T15:36:36.960Z,22.09
2018-08-16T15:37:37.391Z,22.07
2018-08-16T15:38:37.299Z,22.09
2018-08-16T15:39:37.034Z,22.04
2018-08-16T15:40:37.265Z,22.06
2018-08-16T15:41:36.929Z,22.07
2018-08-16T15:42:37.269Z,22.07
2018-08-16T15:43:37.246Z,22.07
2018-08-16T15:44:36.911Z,22.02
2018-08-16T15:45:37.240Z,22.07
2018-08-16T15:46:37.222Z,22.06
2018-08-16T15:47:36.890Z,22.09
2018-08-16T15:48:36.883Z,22.06
2018-08-16T15:49:36.865Z,22.09
2018-08-16T15:50:36.867Z,22.04
2018-08-16T15:51:36.876Z,22.09
2018-08-16T15:52:36.865Z,22.06
2018-08-16T15:53:37.181Z,22.07
2018-08-16T15:54:36.853Z,22.09
2018-08-16T15:55:37.164Z,22.06
2018-08-16T15:56:37.157Z,22.06
2018-08-16T15:57:37.173Z,22.07
2018-08-16T15:58:37.154Z,22.06
2018-08-16T15:59:37.155Z,22.06
2018-08-16T16:00:37.146Z,22.10
2018-08-16T16:01:37.142Z,22.06
2018-08-16T16:02:37.114Z,22.09
2018-08-16T16:03:36.780Z,22.09
2018-08-16T16:04:37.119Z,22.09
2018-08-16T16:05:36.783Z,22.01
2018-08-16T16:06:37.089Z,22.10
2018-08-16T16:07:37.090Z,22.09
2018-08-16T16:08:36.748Z,22.07
2018-08-16T16:09:36.746Z,22.07
2018-08-16T16:10:37.063Z,22.04
2018-08-16T16:11:36.738Z,22.10
2018-08-16T16:12:37.076Z,22.04
2018-08-16T16:13:37.039Z,22.09
2018-08-16T16:14:37.034Z,22.09
2018-08-16T16:15:36.700Z,22.06
2018-08-16T16:16:36.684Z,22.07
2018-08-16T16:17:37.013Z,22.10
2018-08-16T16:18:37.028Z,22.04
2018-08-16T16:19:36.666Z,22.12
2018-08-16T16:20:36.996Z,22.06
2018-08-16T16:21:36.662Z,22.06
2018-08-16T16:22:36.998Z,22.07
2018-08-16T16:23:36.975Z,22.06
2018-08-16T16:24:36.971Z,22.09
2018-08-16T16:25:36.638Z,22.09
2018-08-16T16:26:36.638Z,22.02
2018-08-16T16:27:36.632Z,22.06
2018-08-16T16:28:36.937Z,22.06
2018-08-16T16:29:36.607Z,22.06
2018-08-16T16:30:36.954Z,22.07
2018-08-16T16:31:36.921Z,22.06
2018-08-16T16:32:36.918Z,22.02
2018-08-16T16:33:36.927Z,22.07
2018-08-16T16:34:36.573Z,22.09
2018-08-16T16:35:36.566Z,22.02
2018-08-16T16:36:36.559Z,22.10
2018-08-16T16:37:36.900Z,22.01
2018-08-16T16:38:36.557Z,22.07
2018-08-16T16:39:36.531Z,22.06
2018-08-16T16:40:36.533Z,22.04
2018-08-16T16:41:36.847Z,22.06
2018-08-16T16:42:36.513Z,22.06
2018-08-16T16:43:36.512Z,22.01
2018-08-16T16:44:36.511Z,22.04
2018-08-16T16:45:36.839Z,22.06
2018-08-16T16:46:36.485Z,22.04
2018-08-16T16:47:36.478Z,22.04
2018-08-16T16:48:36.809Z,22.06
2018-08-16T16:49:36.485Z,22.06
2018-08-16T17:00:22.917Z,21.98
2018-08-16T17:01:22.805Z,21.99
2018-08-16T17:03:16.505Z,21.97
2018-08-16T17:04:16.264Z,21.99
2018-08-16T17:06:09.714Z,22.01
2018-08-16T17:07:09.836Z,22.02
2018-08-16T17:09:03.160Z,22.04
2018-08-16T17:10:03.169Z,22.02
2018-08-16T17:11:56.390Z,21.99
2018-08-16T17:12:56.165Z,21.95
2018-08-16T17:14:49.540Z,22.01
2018-08-16T17:15:49.492Z,21.99
2018-08-16T17:17:43.071Z,21.99
2018-08-16T17:18:43.177Z,22.01
2018-08-16T17:20:36.517Z,21.97
2018-08-16T17:21:36.528Z,21.98
2018-08-16T17:23:30.187Z,22.01
2018-08-16T17:24:29.864Z,22.01
2018-08-16T17:26:23.278Z,21.99
2018-08-16T17:27:22.859Z,22.01
2018-08-16T17:29:16.411Z,21.95
2018-08-16T17:30:16.545Z,22.02
2018-08-16T17:32:09.623Z,22.04
2018-08-16T17:33:09.871Z,21.99
2018-08-16T17:35:03.498Z,21.97
2018-08-16T17:36:02.870Z,21.98
2018-08-16T17:37:56.577Z,21.97
2018-08-16T17:38:56.551Z,21.99
2018-08-16T17:40:50.101Z,21.95
2018-08-16T17:41:49.587Z,22.04
2018-08-16T17:43:42.908Z,21.92
2018-08-16T17:44:42.897Z,22.02
2018-08-16T17:46:36.796Z,22.02
2018-08-16T17:47:36.242Z,21.98
2018-08-16T17:49:29.925Z,22.01
2018-08-16T17:50:29.592Z,22.01
2018-08-16T17:52:23.752Z,21.95
2018-08-16T17:53:22.931Z,21.99
2018-08-16T17:55:16.283Z,21.95
2018-08-16T17:56:16.257Z,22.01
2018-08-16T17:58:09.961Z,22.01
2018-08-16T17:59:09.601Z,22.01
2018-08-16T18:01:02.950Z,21.97
2018-08-16T18:02:02.945Z,21.97
2018-08-16T18:03:56.839Z,21.98
2018-08-16T18:04:56.636Z,21.98
2018-08-16T18:06:49.970Z,21.99
2018-08-16T18:07:49.952Z,22.02
2018-08-16T18:09:43.187Z,22.01
2018-08-16T18:10:43.294Z,22.02
2018-08-16T18:12:36.644Z,21.97
2018-08-16T18:13:36.630Z,21.99
2018-08-16T18:15:29.927Z,21.95
2018-08-16T18:16:29.649Z,22.01
2018-08-16T18:18:23.917Z,22.01
2018-08-16T18:19:23.315Z,21.98
2018-08-16T18:21:16.901Z,22.01
2018-08-16T18:22:16.334Z,21.98
2018-08-16T18:24:09.681Z,22.01
2018-08-16T18:25:09.668Z,22.01
2018-08-16T18:27:03.585Z,21.99
2018-08-16T18:28:03.360Z,21.97
2018-08-16T18:29:56.712Z,21.95
2018-08-16T18:30:56.347Z,22.01
2018-08-16T18:32:50.261Z,21.99
2018-08-16T18:33:49.683Z,21.99
2018-08-16T18:35:43.035Z,22.02
2018-08-16T18:36:43.407Z,22.04
2018-08-16T18:38:36.569Z,21.98
2018-08-16T18:39:36.715Z,21.95
2018-08-16T18:41:29.720Z,22.04
2018-08-16T18:42:29.748Z,21.91
2018-08-16T18:44:23.627Z,21.98
2018-08-16T18:45:23.378Z,22.01
2018-08-16T18:47:16.383Z,21.99
2018-08-16T18:48:16.395Z,21.98
2018-08-16T18:50:09.952Z,21.97
2018-08-16T18:51:10.076Z,22.04
2018-08-16T18:53:04.002Z,22.01
2018-08-16T18:54:03.397Z,21.97
2018-08-16T18:55:56.670Z,21.91
2018-08-16T18:56:56.757Z,21.95
2018-08-16T18:58:49.772Z,22.04
2018-08-16T18:59:49.751Z,21.99
2018-08-16T19:01:44.263Z,21.97
2018-08-16T19:02:43.090Z,21.98
2018-08-16T19:04:36.545Z,21.94
2018-08-16T19:05:36.863Z,21.91
2018-08-16T19:07:30.358Z,21.97
2018-08-16T19:08:29.774Z,21.94
2018-08-16T19:10:23.452Z,21.91
2018-08-16T19:11:23.477Z,21.94
2018-08-16T19:13:17.075Z,21.97
2018-08-16T19:14:16.463Z,22.01
2018-08-16T19:16:09.798Z,21.94
2018-08-16T19:17:10.121Z,21.90
2018-08-16T19:19:03.694Z,21.94
2018-08-16T19:20:03.479Z,21.95
2018-08-16T19:21:57.425Z,22.02
2018-08-16T19:22:56.832Z,21.88
2018-08-16T19:24:50.058Z,21.98
2018-08-16T19:25:49.807Z,21.97
2018-08-16T19:27:43.512Z,21.92
2018-08-16T19:28:43.154Z,21.94
2018-08-16T19:30:37.120Z,21.94
2018-08-16T19:31:36.530Z,21.90
2018-08-16T19:33:30.177Z,21.94
2018-08-16T19:34:30.169Z,21.91
2018-08-16T19:36:23.755Z,21.92
2018-08-16T19:37:23.527Z,21.90
2018-08-16T19:39:16.852Z,21.97
2018-08-16T19:40:16.513Z,21.88
2018-08-16T19:42:10.588Z,21.81
2018-08-16T19:43:09.861Z,21.92
2018-08-16T19:45:03.231Z,21.91
2018-08-16T19:46:03.204Z,21.88
2018-08-16T19:47:57.621Z,21.92
2018-08-16T19:48:56.879Z,21.91
2018-08-16T19:50:49.986Z,21.88
2018-08-16T19:51:50.211Z,21.92
2018-08-16T19:53:43.753Z,21.91
2018-08-16T19:54:43.568Z,21.90
2018-08-16T19:56:36.895Z,21.95
2018-08-16T19:57:36.910Z,21.85
2018-08-16T19:59:30.144Z,21.85
2018-08-16T20:00:30.231Z,21.82
2018-08-16T20:02:23.266Z,21.85
2018-08-16T20:03:23.243Z,21.92
2018-08-16T20:04:23.561Z,21.92
2018-08-16T20:05:23.567Z,21.81
2018-08-16T20:06:23.571Z,21.92
2018-08-16T20:07:23.210Z,21.90
2018-08-16T20:08:23.540Z,21.92
2018-08-16T20:09:23.530Z,21.85
2018-08-16T20:10:23.545Z,21.85
2018-08-16T20:11:23.520Z,21.82
2018-08-16T20:12:23.193Z,21.88
2018-08-16T20:13:23.168Z,21.82
2018-08-16T20:14:23.500Z,21.85
2018-08-16T20:15:23.153Z,21.82
2018-08-16T20:16:23.482Z,21.83
2018-08-16T20:17:23.150Z,21.85
2018-08-16T20:18:23.468Z,21.88
2018-08-16T20:19:23.506Z,21.85
2018-08-16T20:20:23.118Z,21.88
2018-08-16T20:21:23.469Z,21.83
2018-08-16T20:22:23.115Z,21.82
2018-08-16T20:23:23.116Z,21.81
2018-08-16T20:24:23.420Z,21.85
2018-08-16T20:25:23.085Z,21.82
2018-08-16T20:26:23.086Z,21.90
2018-08-16T20:27:23.074Z,21.88
2018-08-16T20:28:23.064Z,21.82
2018-08-16T20:29:23.059Z,21.79
2018-08-16T20:30:23.433Z,21.79
2018-08-16T20:31:23.400Z,21.82
2018-08-16T20:32:23.048Z,21.81
2018-08-16T20:33:23.368Z,21.79
2018-08-16T20:34:23.023Z,21.76
2018-08-16T20:35:23.353Z,21.78
2018-08-16T20:36:23.010Z,21.76
2018-08-16T20:37:23.009Z,21.85
2018-08-16T20:38:23.350Z,21.82
2018-08-16T20:39:23.000Z,21.85
2018-08-16T20:40:23.312Z,21.79
2018-08-16T20:41:23.329Z,21.78
2018-08-16T20:42:23.299Z,21.78
2018-08-16T20:43:23.317Z,21.81
2018-08-16T20:44:22.970Z,21.76
2018-08-16T20:45:23.285Z,21.88
2018-08-16T20:46:22.965Z,21.82
2018-08-16T20:47:23.275Z,21.78
2018-08-16T20:48:22.923Z,21.78
2018-08-16T20:49:23.260Z,21.81
2018-08-16T20:50:23.255Z,21.79
2018-08-16T20:51:22.912Z,21.78
2018-08-16T20:52:23.246Z,21.78
2018-08-16T20:53:22.896Z,21.82
2018-08-16T20:54:23.235Z,21.88
2018-08-16T20:55:23.208Z,21.90
2018-08-16T20:56:23.211Z,21.78
2018-08-16T20:57:22.924Z,21.83
2018-08-16T20:58:23.196Z,21.83
2018-08-16T20:59:22.864Z,21.85
2018-08-16T21:00:23.179Z,21.79
2018-08-16T21:01:22.841Z,21.88
2018-08-16T21:02:23.188Z,21.78
2018-08-16T21:03:22.833Z,21.82
2018-08-16T21:04:22.830Z,21.78
2018-08-16T21:05:22.836Z,21.85
2018-08-16T21:06:22.818Z,21.83
2018-08-16T21:07:22.808Z,21.78
2018-08-16T21:08:23.157Z,21.82
2018-08-16T21:09:22.785Z,21.79
2018-08-16T21:10:22.813Z,21.79
2018-08-16T21:11:22.785Z,21.82
2018-08-16T21:12:22.772Z,21.83
2018-08-16T21:13:23.103Z,21.81
2018-08-16T21:14:23.087Z,21.82
2018-08-16T21:15:23.102Z,21.82
2018-08-16T21:16:22.746Z,21.82
2018-08-16T21:17:22.736Z,21.82
2018-08-16T21:18:22.730Z,21.83
2018-08-16T21:19:23.072Z,21.81
2018-08-16T21:20:23.047Z,21.81
2018-08-16T21:21:22.722Z,21.79
2018-08-16T21:22:22.702Z,21.81
2018-08-16T21:23:22.690Z,21.83
2018-08-16T21:24:23.020Z,21.82
2018-08-16T21:25:22.707Z,21.67
2018-08-16T21:26:23.028Z,21.79
2018-08-16T21:27:23.008Z,21.78
2018-08-16T21:28:22.660Z,21.81
2018-08-16T21:29:22.656Z,21.81
2018-08-16T21:30:22.993Z,21.81
2018-08-16T21:31:22.646Z,21.82
2018-08-16T21:32:22.631Z,21.74
2018-08-16T21:33:22.628Z,21.82
2018-08-16T21:34:22.970Z,21.81
2018-08-16T21:35:22.615Z,21.81
2018-08-16T21:36:22.951Z,21.78
2018-08-16T21:37:22.922Z,21.76
2018-08-16T21:38:22.600Z,21.82
2018-08-16T21:39:22.577Z,21.79
2018-08-16T21:40:22.910Z,21.74
2018-08-16T21:41:22.922Z,21.79
2018-08-16T21:42:22.914Z,21.78
2018-08-16T21:43:22.903Z,21.81
2018-08-16T21:44:22.556Z,21.76
2018-08-16T21:45:22.899Z,21.75
2018-08-16T21:46:22.554Z,21.72
2018-08-16T21:47:22.521Z,21.76
2018-08-16T21:48:22.880Z,21.67
2018-08-16T21:49:22.861Z,21.76
2018-08-16T21:50:22.501Z,21.72
2018-08-16T21:51:22.505Z,21.69
2018-08-16T21:52:22.496Z,21.74
2018-08-16T21:53:22.493Z,21.78
2018-08-16T21:54:22.482Z,21.79
2018-08-16T21:55:22.826Z,21.78
2018-08-16T21:56:22.483Z,21.74
2018-08-16T21:57:22.809Z,21.78
2018-08-16T21:58:22.782Z,21.78
2018-08-16T21:59:22.800Z,21.81
2018-08-16T22:00:22.785Z,21.72
2018-08-16T22:01:22.427Z,21.79
2018-08-16T22:02:22.781Z,21.82
2018-08-16T22:03:22.442Z,21.83
2018-08-16T22:04:22.743Z,21.74
2018-08-16T22:05:22.413Z,21.74
2018-08-16T22:06:22.725Z,21.78
2018-08-16T22:07:22.386Z,21.74
2018-08-16T22:08:22.727Z,21.79
2018-08-16T22:09:22.370Z,21.81
2018-08-16T22:10:22.701Z,21.76
2018-08-16T22:11:22.711Z,21.72
2018-08-16T22:12:22.359Z,21.85
2018-08-16T22:13:22.351Z,21.79
2018-08-16T22:14:22.681Z,21.85
2018-08-16T22:15:22.686Z,21.83
2018-08-16T22:16:22.680Z,21.83
2018-08-16T22:17:22.664Z,21.81
2018-08-16T22:18:22.649Z,21.81
2018-08-16T22:19:22.316Z,21.79
2018-08-16T22:20:22.287Z,21.81
2018-08-16T22:21:22.625Z,21.81
2018-08-16T22:22:22.282Z,21.79
2018-08-16T22:23:22.288Z,21.78
2018-08-16T22:24:22.288Z,21.78
2018-08-16T22:25:22.615Z,21.81
2018-08-16T22:26:22.607Z,21.74
2018-08-16T22:27:22.255Z,21.79
2018-08-16T22:28:22.251Z,21.79
2018-08-16T22:29:22.589Z,21.88
2018-08-16T22:30:22.567Z,21.81
2018-08-16T22:31:22.235Z,21.83
2018-08-16T22:32:22.568Z,21.81
2018-08-16T22:33:22.551Z,21.78
2018-08-16T22:34:22.555Z,21.82
2018-08-16T22:35:22.198Z,21.81
2018-08-16T22:36:22.537Z,21.81
2018-08-16T22:37:22.533Z,21.81
2018-08-16T22:38:22.506Z,21.81
2018-08-16T22:39:22.174Z,21.81
2018-08-16T22:40:22.504Z,21.75
2018-08-16T22:41:22.512Z,21.81
2018-08-16T22:42:22.177Z,21.81
2018-08-16T22:43:22.139Z,21.79
2018-08-16T22:44:22.130Z,21.79
2018-08-16T22:45:22.459Z,21.83
2018-08-16T22:46:22.117Z,21.79
2018-08-16T22:47:22.441Z,21.82
2018-08-16T22:48:22.117Z,21.83
2018-08-16T22:49:22.102Z,21.82
2018-08-16T22:50:22.100Z,21.82
2018-08-16T22:51:22.440Z,21.79
2018-08-16T22:52:22.074Z,21.88
2018-08-16T22:53:22.424Z,21.82
2018-08-16T22:54:22.083Z,21.85
2018-08-16T22:55:22.390Z,21.81
2018-08-16T22:56:22.051Z,21.78
2018-08-16T22:57:22.395Z,21.82
2018-08-16T22:58:22.372Z,21.78
2018-08-16T22:59:22.388Z,21.79
2018-08-16T23:00:22.377Z,21.81
2018-08-16T23:01:22.367Z,21.79
2018-08-16T23:02:22.011Z,21.79
2018-08-16T23:03:21.999Z,21.79
2018-08-16T23:04:22.328Z,21.95
2018-08-16T23:05:22.005Z,21.88
2018-08-16T23:06:22.309Z,21.85
2018-08-16T23:07:21.965Z,21.95
2018-08-16T23:08:22.319Z,21.97
2018-08-16T23:09:21.963Z,21.92
2018-08-16T23:10:21.947Z,21.92
2018-08-16T23:11:22.282Z,21.97
2018-08-16T23:12:22.292Z,22.02
2018-08-16T23:13:22.267Z,21.97
2018-08-16T23:14:21.938Z,22.04
2018-08-16T23:15:22.266Z,22.10
2018-08-16T23:16:22.244Z,22.04
2018-08-16T23:17:21.907Z,22.16
2018-08-16T23:18:21.903Z,22.25
2018-08-16T23:19:22.218Z,22.17
2018-08-16T23:20:21.894Z,22.22
2018-08-16T23:21:21.894Z,22.32
2018-08-16T23:22:22.201Z,22.35
2018-08-16T23:23:21.891Z,22.38
2018-08-16T23:24:21.851Z,22.39
2018-08-16T23:25:22.201Z,22.29
2018-08-16T23:26:22.179Z,22.41
2018-08-16T23:27:22.168Z,22.38
2018-08-16T23:28:22.164Z,22.50
2018-08-16T23:29:22.155Z,22.47
2018-08-16T23:30:21.818Z,22.50
2018-08-16T23:31:22.142Z,22.53
2018-08-16T23:32:22.156Z,22.56
2018-08-16T23:33:22.148Z,22.57
2018-08-16T23:34:21.801Z,22.56
2018-08-16T23:35:22.137Z,22.65
2018-08-16T23:36:21.790Z,22.67
2018-08-16T23:37:22.104Z,22.59
2018-08-16T23:38:21.754Z,22.74
2018-08-16T23:39:21.774Z,22.72
2018-08-16T23:40:22.095Z,22.74
2018-08-16T23:41:22.096Z,22.75
2018-08-16T23:42:22.072Z,22.75
2018-08-16T23:43:22.081Z,22.82
2018-08-16T23:44:21.714Z,22.80
2018-08-16T23:45:21.717Z,22.86
2018-08-16T23:46:21.715Z,22.94
2018-08-16T23:47:22.052Z,22.82
2018-08-16T23:48:22.046Z,22.96
2018-08-16T23:49:22.040Z,22.87
2018-08-16T23:50:22.036Z,22.87
2018-08-16T23:51:22.029Z,22.90
2018-08-16T23:52:22.020Z,22.90
2018-08-16T23:53:22.014Z,22.94
2018-08-16T23:54:21.661Z,23.02
2018-08-16T23:55:21.648Z,23.01
2018-08-16T23:56:21.645Z,23.02
2018-08-16T23:57:21.970Z,22.96
2018-08-16T23:58:21.961Z,22.93
2018-08-16T23:59:21.621Z,22.99
